sensor_id;sensor_type;location;lat;lon;timestamp;temperature;humidity
75363;DHT22;64122;51.988;5.892;2023-05-27T00:00:52;11.10;61.51
75363;DHT22;64122;51.988;5.892;2023-05-27T00:03:24;11.07;61.53
75363;DHT22;64122;51.988;5.892;2023-05-27T00:05:53;11.08;61.61
75363;DHT22;64122;51.988;5.892;2023-05-27T00:08:22;11.07;61.70
75363;DHT22;64122;51.988;5.892;2023-05-27T00:10:52;11.03;61.73
75363;DHT22;64122;51.988;5.892;2023-05-27T00:13:21;10.98;62.02
75363;DHT22;64122;51.988;5.892;2023-05-27T00:15:50;10.92;62.37
75363;DHT22;64122;51.988;5.892;2023-05-27T00:18:19;10.92;62.37
75363;DHT22;64122;51.988;5.892;2023-05-27T00:20:51;10.86;62.49
75363;DHT22;64122;51.988;5.892;2023-05-27T00:23:21;10.84;62.77
75363;DHT22;64122;51.988;5.892;2023-05-27T00:25:50;10.85;62.65
75363;DHT22;64122;51.988;5.892;2023-05-27T00:28:20;10.84;62.62
75363;DHT22;64122;51.988;5.892;2023-05-27T00:30:49;10.80;62.87
75363;DHT22;64122;51.988;5.892;2023-05-27T00:33:18;10.75;63.21
75363;DHT22;64122;51.988;5.892;2023-05-27T00:35:50;10.75;62.99
75363;DHT22;64122;51.988;5.892;2023-05-27T00:38:20;10.70;63.40
75363;DHT22;64122;51.988;5.892;2023-05-27T00:40:50;10.73;63.03
75363;DHT22;64122;51.988;5.892;2023-05-27T00:43:21;10.68;63.38
75363;DHT22;64122;51.988;5.892;2023-05-27T00:45:51;10.67;63.33
75363;DHT22;64122;51.988;5.892;2023-05-27T00:48:20;10.62;63.71
75363;DHT22;64122;51.988;5.892;2023-05-27T00:50:52;10.62;63.59
75363;DHT22;64122;51.988;5.892;2023-05-27T00:53:23;10.56;63.77
75363;DHT22;64122;51.988;5.892;2023-05-27T00:55:53;10.53;63.95
75363;DHT22;64122;51.988;5.892;2023-05-27T00:58:23;10.51;63.99
75363;DHT22;64122;51.988;5.892;2023-05-27T01:00:53;10.49;64.18
75363;DHT22;64122;51.988;5.892;2023-05-27T01:03:23;10.46;64.21
75363;DHT22;64122;51.988;5.892;2023-05-27T01:06:02;10.39;64.42
75363;DHT22;64122;51.988;5.892;2023-05-27T01:08:37;10.41;64.29
75363;DHT22;64122;51.988;5.892;2023-05-27T01:11:10;10.37;64.37
75363;DHT22;64122;51.988;5.892;2023-05-27T01:13:41;10.31;64.69
75363;DHT22;64122;51.988;5.892;2023-05-27T01:16:14;10.26;65.02
75363;DHT22;64122;51.988;5.892;2023-05-27T01:18:45;10.24;65.17
75363;DHT22;64122;51.988;5.892;2023-05-27T01:21:20;10.23;65.09
75363;DHT22;64122;51.988;5.892;2023-05-27T01:23:54;10.19;65.27
75363;DHT22;64122;51.988;5.892;2023-05-27T01:26:23;10.21;65.30
75363;DHT22;64122;51.988;5.892;2023-05-27T01:28:54;10.22;65.15
75363;DHT22;64122;51.988;5.892;2023-05-27T01:31:27;10.19;65.20
75363;DHT22;64122;51.988;5.892;2023-05-27T01:34:00;10.19;65.43
75363;DHT22;64122;51.988;5.892;2023-05-27T01:36:36;10.18;65.39
75363;DHT22;64122;51.988;5.892;2023-05-27T01:39:10;10.16;65.29
75363;DHT22;64122;51.988;5.892;2023-05-27T01:41:41;10.18;65.42
75363;DHT22;64122;51.988;5.892;2023-05-27T01:44:15;10.16;65.33
75363;DHT22;64122;51.988;5.892;2023-05-27T01:46:47;10.15;65.51
75363;DHT22;64122;51.988;5.892;2023-05-27T01:49:17;10.15;65.72
75363;DHT22;64122;51.988;5.892;2023-05-27T01:51:46;10.12;65.69
75363;DHT22;64122;51.988;5.892;2023-05-27T01:54:18;10.09;65.88
75363;DHT22;64122;51.988;5.892;2023-05-27T01:56:48;9.90;66.41
75363;DHT22;64122;51.988;5.892;2023-05-27T01:59:18;9.97;66.39
75363;DHT22;64122;51.988;5.892;2023-05-27T02:01:47;10.03;66.17
75363;DHT22;64122;51.988;5.892;2023-05-27T02:04:18;10.03;66.17
75363;DHT22;64122;51.988;5.892;2023-05-27T02:06:47;10.01;66.21
75363;DHT22;64122;51.988;5.892;2023-05-27T02:09:19;10.03;66.18
75363;DHT22;64122;51.988;5.892;2023-05-27T02:11:49;10.05;66.13
75363;DHT22;64122;51.988;5.892;2023-05-27T02:14:18;10.06;66.24
75363;DHT22;64122;51.988;5.892;2023-05-27T02:16:52;10.00;66.36
75363;DHT22;64122;51.988;5.892;2023-05-27T02:19:22;10.00;66.33
75363;DHT22;64122;51.988;5.892;2023-05-27T02:21:52;9.97;66.58
75363;DHT22;64122;51.988;5.892;2023-05-27T02:24:24;9.95;66.53
75363;DHT22;64122;51.988;5.892;2023-05-27T02:26:53;9.97;66.33
75363;DHT22;64122;51.988;5.892;2023-05-27T02:29:22;9.93;66.59
75363;DHT22;64122;51.988;5.892;2023-05-27T02:31:51;9.91;66.57
75363;DHT22;64122;51.988;5.892;2023-05-27T02:34:21;9.89;66.56
75363;DHT22;64122;51.988;5.892;2023-05-27T02:36:51;9.84;66.71
75363;DHT22;64122;51.988;5.892;2023-05-27T02:39:23;9.83;66.83
75363;DHT22;64122;51.988;5.892;2023-05-27T02:41:53;9.78;66.89
75363;DHT22;64122;51.988;5.892;2023-05-27T02:44:23;9.75;67.04
75363;DHT22;64122;51.988;5.892;2023-05-27T02:46:52;9.70;67.13
75363;DHT22;64122;51.988;5.892;2023-05-27T02:49:22;9.69;67.10
75363;DHT22;64122;51.988;5.892;2023-05-27T02:51:51;9.71;67.07
75363;DHT22;64122;51.988;5.892;2023-05-27T02:54:23;9.68;67.03
75363;DHT22;64122;51.988;5.892;2023-05-27T02:56:54;9.66;67.15
75363;DHT22;64122;51.988;5.892;2023-05-27T02:59:24;9.65;67.18
75363;DHT22;64122;51.988;5.892;2023-05-27T03:01:53;9.65;67.20
75363;DHT22;64122;51.988;5.892;2023-05-27T03:04:22;9.64;67.21
75363;DHT22;64122;51.988;5.892;2023-05-27T03:06:52;9.64;67.18
75363;DHT22;64122;51.988;5.892;2023-05-27T03:09:24;9.62;67.25
75363;DHT22;64122;51.988;5.892;2023-05-27T03:11:54;9.59;67.45
75363;DHT22;64122;51.988;5.892;2023-05-27T03:14:23;9.59;67.43
75363;DHT22;64122;51.988;5.892;2023-05-27T03:16:54;9.60;67.41
75363;DHT22;64122;51.988;5.892;2023-05-27T03:19:24;9.57;67.47
75363;DHT22;64122;51.988;5.892;2023-05-27T03:21:54;9.55;67.63
75363;DHT22;64122;51.988;5.892;2023-05-27T03:24:28;9.54;67.50
75363;DHT22;64122;51.988;5.892;2023-05-27T03:26:58;9.59;67.38
75363;DHT22;64122;51.988;5.892;2023-05-27T03:29:28;9.60;67.33
75363;DHT22;64122;51.988;5.892;2023-05-27T03:31:57;9.59;67.62
75363;DHT22;64122;51.988;5.892;2023-05-27T03:34:27;9.57;67.59
75363;DHT22;64122;51.988;5.892;2023-05-27T03:36:56;9.57;67.68
75363;DHT22;64122;51.988;5.892;2023-05-27T03:39:44;9.55;67.65
75363;DHT22;64122;51.988;5.892;2023-05-27T03:42:13;9.60;67.67
75363;DHT22;64122;51.988;5.892;2023-05-27T03:44:43;9.59;67.62
75363;DHT22;64122;51.988;5.892;2023-05-27T03:47:12;9.60;67.72
75363;DHT22;64122;51.988;5.892;2023-05-27T03:49:43;9.60;67.65
75363;DHT22;64122;51.988;5.892;2023-05-27T03:52:13;9.61;67.67
75363;DHT22;64122;51.988;5.892;2023-05-27T03:54:45;9.63;67.62
75363;DHT22;64122;51.988;5.892;2023-05-27T03:57:14;9.63;67.79
75363;DHT22;64122;51.988;5.892;2023-05-27T03:59:43;9.64;67.78
75363;DHT22;64122;51.988;5.892;2023-05-27T04:02:14;9.64;67.91
75363;DHT22;64122;51.988;5.892;2023-05-27T04:04:44;9.67;67.83
75363;DHT22;64122;51.988;5.892;2023-05-27T04:07:15;9.72;67.67
75363;DHT22;64122;51.988;5.892;2023-05-27T04:09:48;9.72;67.62
75363;DHT22;64122;51.988;5.892;2023-05-27T04:12:17;9.75;67.65
75363;DHT22;64122;51.988;5.892;2023-05-27T04:14:49;9.78;67.70
75363;DHT22;64122;51.988;5.892;2023-05-27T04:17:19;9.80;67.64
75363;DHT22;64122;51.988;5.892;2023-05-27T04:19:48;9.83;67.62
75363;DHT22;64122;51.988;5.892;2023-05-27T04:22:18;9.84;67.74
75363;DHT22;64122;51.988;5.892;2023-05-27T04:24:51;9.84;67.75
75363;DHT22;64122;51.988;5.892;2023-05-27T04:27:21;9.93;67.38
75363;DHT22;64122;51.988;5.892;2023-05-27T04:29:51;10.01;67.22
75363;DHT22;64122;51.988;5.892;2023-05-27T04:32:21;10.01;67.33
75363;DHT22;64122;51.988;5.892;2023-05-27T04:34:50;10.08;67.17
75363;DHT22;64122;51.988;5.892;2023-05-27T04:37:19;10.11;67.14
75363;DHT22;64122;51.988;5.892;2023-05-27T04:39:51;10.13;67.14
75363;DHT22;64122;51.988;5.892;2023-05-27T04:42:24;10.21;67.01
75363;DHT22;64122;51.988;5.892;2023-05-27T04:44:54;10.26;66.82
75363;DHT22;64122;51.988;5.892;2023-05-27T04:47:24;10.31;66.78
75363;DHT22;64122;51.988;5.892;2023-05-27T04:49:53;10.35;66.78
75363;DHT22;64122;51.988;5.892;2023-05-27T04:52:22;10.36;66.73
75363;DHT22;64122;51.988;5.892;2023-05-27T04:54:57;10.37;66.75
75363;DHT22;64122;51.988;5.892;2023-05-27T04:57:35;10.42;66.74
75363;DHT22;64122;51.988;5.892;2023-05-27T05:00:09;10.44;66.69
75363;DHT22;64122;51.988;5.892;2023-05-27T05:02:51;10.48;66.68
75363;DHT22;64122;51.988;5.892;2023-05-27T05:05:28;10.53;66.62
75363;DHT22;64122;51.988;5.892;2023-05-27T05:07:58;10.57;66.69
75363;DHT22;64122;51.988;5.892;2023-05-27T05:10:31;10.62;66.50
75363;DHT22;64122;51.988;5.892;2023-05-27T05:13:03;10.67;66.52
75363;DHT22;64122;51.988;5.892;2023-05-27T05:15:33;10.75;66.46
75363;DHT22;64122;51.988;5.892;2023-05-27T05:18:04;10.85;66.17
75363;DHT22;64122;51.988;5.892;2023-05-27T05:20:34;10.93;66.01
75363;DHT22;64122;51.988;5.892;2023-05-27T05:23:05;10.99;65.95
75363;DHT22;64122;51.988;5.892;2023-05-27T05:25:37;11.07;65.82
75363;DHT22;64122;51.988;5.892;2023-05-27T05:28:07;10.95;66.14
75363;DHT22;64122;51.988;5.892;2023-05-27T05:30:38;11.07;66.11
75363;DHT22;64122;51.988;5.892;2023-05-27T05:33:09;11.18;65.85
75363;DHT22;64122;51.988;5.892;2023-05-27T05:35:38;11.29;65.65
75363;DHT22;64122;51.988;5.892;2023-05-27T05:38:20;11.36;65.72
75363;DHT22;64122;51.988;5.892;2023-05-27T05:40:53;11.41;65.61
75363;DHT22;64122;51.988;5.892;2023-05-27T05:43:23;11.47;65.69
75363;DHT22;64122;51.988;5.892;2023-05-27T05:45:53;11.55;65.72
75363;DHT22;64122;51.988;5.892;2023-05-27T05:48:22;11.63;65.68
75363;DHT22;64122;51.988;5.892;2023-05-27T05:50:54;11.71;65.55
75363;DHT22;64122;51.988;5.892;2023-05-27T05:53:24;11.83;65.54
75363;DHT22;64122;51.988;5.892;2023-05-27T05:55:57;11.98;65.10
75363;DHT22;64122;51.988;5.892;2023-05-27T05:58:27;12.12;64.82
75363;DHT22;64122;51.988;5.892;2023-05-27T06:00:57;12.21;64.77
75363;DHT22;64122;51.988;5.892;2023-05-27T06:03:39;12.33;64.52
75363;DHT22;64122;51.988;5.892;2023-05-27T06:06:14;12.45;64.28
75363;DHT22;64122;51.988;5.892;2023-05-27T06:09:16;12.48;64.25
75363;DHT22;64122;51.988;5.892;2023-05-27T06:11:49;12.64;63.92
75363;DHT22;64122;51.988;5.892;2023-05-27T06:14:19;12.80;63.50
75363;DHT22;64122;51.988;5.892;2023-05-27T06:16:50;12.91;63.18
75363;DHT22;64122;51.988;5.892;2023-05-27T06:19:20;13.03;62.87
75363;DHT22;64122;51.988;5.892;2023-05-27T06:21:56;13.12;62.43
75363;DHT22;64122;51.988;5.892;2023-05-27T06:24:40;13.26;62.02
75363;DHT22;64122;51.988;5.892;2023-05-27T06:27:34;13.39;61.63
75363;DHT22;64122;51.988;5.892;2023-05-27T06:30:08;13.52;61.38
75363;DHT22;64122;51.988;5.892;2023-05-27T06:32:42;13.66;60.98
75363;DHT22;64122;51.988;5.892;2023-05-27T06:35:12;13.80;60.44
75363;DHT22;64122;51.988;5.892;2023-05-27T06:37:45;13.94;60.02
75363;DHT22;64122;51.988;5.892;2023-05-27T06:40:16;14.05;59.66
75363;DHT22;64122;51.988;5.892;2023-05-27T06:42:48;14.20;59.44
75363;DHT22;64122;51.988;5.892;2023-05-27T06:45:41;14.37;59.08
75363;DHT22;64122;51.988;5.892;2023-05-27T06:48:25;14.54;58.50
75363;DHT22;64122;51.988;5.892;2023-05-27T06:50:54;14.63;58.08
75363;DHT22;64122;51.988;5.892;2023-05-27T06:53:23;14.69;57.98
75363;DHT22;64122;51.988;5.892;2023-05-27T06:55:57;14.84;57.35
75363;DHT22;64122;51.988;5.892;2023-05-27T06:58:51;15.03;57.05
75363;DHT22;64122;51.988;5.892;2023-05-27T07:01:21;15.21;56.45
75363;DHT22;64122;51.988;5.892;2023-05-27T07:03:54;15.36;55.94
75363;DHT22;64122;51.988;5.892;2023-05-27T07:06:36;15.57;55.72
75363;DHT22;64122;51.988;5.892;2023-05-27T07:09:06;15.81;55.05
75363;DHT22;64122;51.988;5.892;2023-05-27T07:11:37;16.03;54.59
75363;DHT22;64122;51.988;5.892;2023-05-27T07:14:13;16.43;53.23
75363;DHT22;64122;51.988;5.892;2023-05-27T07:16:46;17.32;51.04
75363;DHT22;64122;51.988;5.892;2023-05-27T07:19:16;19.23;46.60
75363;DHT22;64122;51.988;5.892;2023-05-27T07:21:50;21.44;41.92
75363;DHT22;64122;51.988;5.892;2023-05-27T07:24:23;23.40;38.26
75363;DHT22;64122;51.988;5.892;2023-05-27T07:26:55;24.80;35.45
75363;DHT22;64122;51.988;5.892;2023-05-27T07:29:29;25.52;34.31
75363;DHT22;64122;51.988;5.892;2023-05-27T07:32:19;26.10;32.83
75363;DHT22;64122;51.988;5.892;2023-05-27T07:34:49;26.46;31.96
75363;DHT22;64122;51.988;5.892;2023-05-27T07:37:19;26.53;31.15
75363;DHT22;64122;51.988;5.892;2023-05-27T07:39:49;26.62;30.79
75363;DHT22;64122;51.988;5.892;2023-05-27T07:42:20;26.36;31.12
75363;DHT22;64122;51.988;5.892;2023-05-27T07:44:53;27.11;30.55
75363;DHT22;64122;51.988;5.892;2023-05-27T07:47:23;28.13;28.62
75363;DHT22;64122;51.988;5.892;2023-05-27T07:49:54;29.05;27.44
75363;DHT22;64122;51.988;5.892;2023-05-27T07:52:36;29.07;27.08
75363;DHT22;64122;51.988;5.892;2023-05-27T07:55:18;28.83;26.87
75363;DHT22;64122;51.988;5.892;2023-05-27T07:57:48;29.13;26.56
75363;DHT22;64122;51.988;5.892;2023-05-27T08:00:20;28.90;26.26
75363;DHT22;64122;51.988;5.892;2023-05-27T08:02:52;28.89;26.52
75363;DHT22;64122;51.988;5.892;2023-05-27T08:05:42;28.95;26.32
75363;DHT22;64122;51.988;5.892;2023-05-27T08:08:20;28.98;25.90
75363;DHT22;64122;51.988;5.892;2023-05-27T08:11:18;29.01;25.96
75363;DHT22;64122;51.988;5.892;2023-05-27T08:13:56;29.11;26.07
75363;DHT22;64122;51.988;5.892;2023-05-27T08:17:07;29.38;25.90
75363;DHT22;64122;51.988;5.892;2023-05-27T08:19:58;30.13;24.88
75363;DHT22;64122;51.988;5.892;2023-05-27T08:22:36;30.35;24.41
75363;DHT22;64122;51.988;5.892;2023-05-27T08:25:24;30.10;24.73
75363;DHT22;64122;51.988;5.892;2023-05-27T08:28:09;30.24;24.59
75363;DHT22;64122;51.988;5.892;2023-05-27T08:30:52;30.35;24.30
75363;DHT22;64122;51.988;5.892;2023-05-27T08:33:27;30.06;24.49
75363;DHT22;64122;51.988;5.892;2023-05-27T08:35:56;30.13;24.79
75363;DHT22;64122;51.988;5.892;2023-05-27T08:38:26;30.35;24.23
75363;DHT22;64122;51.988;5.892;2023-05-27T08:41:07;30.48;23.99
75363;DHT22;64122;51.988;5.892;2023-05-27T08:43:38;30.68;24.04
75363;DHT22;64122;51.988;5.892;2023-05-27T08:46:07;30.99;23.43
75363;DHT22;64122;51.988;5.892;2023-05-27T08:48:40;30.77;23.54
75363;DHT22;64122;51.988;5.892;2023-05-27T08:51:12;30.00;24.39
75363;DHT22;64122;51.988;5.892;2023-05-27T08:53:42;29.98;24.72
75363;DHT22;64122;51.988;5.892;2023-05-27T08:56:14;30.31;24.05
75363;DHT22;64122;51.988;5.892;2023-05-27T08:58:46;30.37;23.79
75363;DHT22;64122;51.988;5.892;2023-05-27T09:01:16;30.47;23.64
75363;DHT22;64122;51.988;5.892;2023-05-27T09:03:51;30.13;24.18
75363;DHT22;64122;51.988;5.892;2023-05-27T09:06:21;30.25;24.47
75363;DHT22;64122;51.988;5.892;2023-05-27T09:08:51;30.52;23.67
75363;DHT22;64122;51.988;5.892;2023-05-27T09:11:22;30.68;23.56
75363;DHT22;64122;51.988;5.892;2023-05-27T09:13:53;31.04;23.33
75363;DHT22;64122;51.988;5.892;2023-05-27T09:16:22;31.16;22.81
75363;DHT22;64122;51.988;5.892;2023-05-27T09:18:57;31.07;23.05
75363;DHT22;64122;51.988;5.892;2023-05-27T09:21:26;30.39;24.36
75363;DHT22;64122;51.988;5.892;2023-05-27T09:23:56;30.16;24.11
75363;DHT22;64122;51.988;5.892;2023-05-27T09:26:27;29.86;24.43
75363;DHT22;64122;51.988;5.892;2023-05-27T09:28:58;29.71;24.56
75363;DHT22;64122;51.988;5.892;2023-05-27T09:31:29;29.81;24.44
75363;DHT22;64122;51.988;5.892;2023-05-27T09:34:09;29.51;24.91
75363;DHT22;64122;51.988;5.892;2023-05-27T09:36:42;29.26;24.97
75363;DHT22;64122;51.988;5.892;2023-05-27T09:39:13;29.43;25.07
75363;DHT22;64122;51.988;5.892;2023-05-27T09:41:42;29.61;24.74
75363;DHT22;64122;51.988;5.892;2023-05-27T09:44:12;29.45;24.97
75363;DHT22;64122;51.988;5.892;2023-05-27T09:46:44;29.36;25.25
75363;DHT22;64122;51.988;5.892;2023-05-27T09:49:17;29.27;25.30
75363;DHT22;64122;51.988;5.892;2023-05-27T09:51:49;29.37;25.11
75363;DHT22;64122;51.988;5.892;2023-05-27T09:54:19;29.21;25.03
75363;DHT22;64122;51.988;5.892;2023-05-27T09:56:51;28.93;25.23
75363;DHT22;64122;51.988;5.892;2023-05-27T09:59:21;28.71;25.78
75363;DHT22;64122;51.988;5.892;2023-05-27T10:01:54;28.60;25.60
75363;DHT22;64122;51.988;5.892;2023-05-27T10:04:27;28.26;26.11
75363;DHT22;64122;51.988;5.892;2023-05-27T10:06:57;28.14;26.65
75363;DHT22;64122;51.988;5.892;2023-05-27T10:09:28;28.01;26.65
75363;DHT22;64122;51.988;5.892;2023-05-27T10:11:57;27.51;26.87
75363;DHT22;64122;51.988;5.892;2023-05-27T10:14:27;27.32;27.52
75363;DHT22;64122;51.988;5.892;2023-05-27T10:16:57;27.22;28.13
75363;DHT22;64122;51.988;5.892;2023-05-27T10:19:29;26.75;27.99
75363;DHT22;64122;51.988;5.892;2023-05-27T10:22:06;26.19;29.05
75363;DHT22;64122;51.988;5.892;2023-05-27T10:24:36;25.88;29.46
75363;DHT22;64122;51.988;5.892;2023-05-27T10:27:06;25.79;29.51
75363;DHT22;64122;51.988;5.892;2023-05-27T10:29:37;25.62;29.64
75363;DHT22;64122;51.988;5.892;2023-05-27T10:32:08;25.51;30.03
75363;DHT22;64122;51.988;5.892;2023-05-27T10:34:44;25.29;30.06
75363;DHT22;64122;51.988;5.892;2023-05-27T10:37:19;25.07;30.45
75363;DHT22;64122;51.988;5.892;2023-05-27T10:39:56;24.94;30.42
75363;DHT22;64122;51.988;5.892;2023-05-27T10:42:25;24.72;30.22
75363;DHT22;64122;51.988;5.892;2023-05-27T10:45:04;24.58;30.11
75363;DHT22;64122;51.988;5.892;2023-05-27T10:47:35;24.42;30.29
75363;DHT22;64122;51.988;5.892;2023-05-27T10:50:14;24.41;30.72
75363;DHT22;64122;51.988;5.892;2023-05-27T10:52:44;24.35;31.32
75363;DHT22;64122;51.988;5.892;2023-05-27T10:55:13;24.11;31.48
75363;DHT22;64122;51.988;5.892;2023-05-27T10:57:43;23.90;31.96
75363;DHT22;64122;51.988;5.892;2023-05-27T11:00:16;23.64;31.03
75363;DHT22;64122;51.988;5.892;2023-05-27T11:02:47;23.55;30.58
75363;DHT22;64122;51.988;5.892;2023-05-27T11:05:20;23.66;31.43
75363;DHT22;64122;51.988;5.892;2023-05-27T11:07:59;23.86;31.39
75363;DHT22;64122;51.988;5.892;2023-05-27T11:10:32;23.97;30.71
75363;DHT22;64122;51.988;5.892;2023-05-27T11:13:01;23.99;30.98
75363;DHT22;64122;51.988;5.892;2023-05-27T11:15:30;24.12;31.11
75363;DHT22;64122;51.988;5.892;2023-05-27T11:18:00;24.14;31.72
75363;DHT22;64122;51.988;5.892;2023-05-27T11:20:39;24.12;31.73
75363;DHT22;64122;51.988;5.892;2023-05-27T11:23:08;24.16;31.51
75363;DHT22;64122;51.988;5.892;2023-05-27T11:25:42;24.04;31.67
75363;DHT22;64122;51.988;5.892;2023-05-27T11:28:15;23.85;31.84
75363;DHT22;64122;51.988;5.892;2023-05-27T11:30:45;23.89;32.10
75363;DHT22;64122;51.988;5.892;2023-05-27T11:33:17;23.96;32.19
75363;DHT22;64122;51.988;5.892;2023-05-27T11:35:50;23.77;32.70
75363;DHT22;64122;51.988;5.892;2023-05-27T11:38:19;23.76;31.82
75363;DHT22;64122;51.988;5.892;2023-05-27T11:40:48;23.86;31.55
75363;DHT22;64122;51.988;5.892;2023-05-27T11:43:18;23.99;31.30
75363;DHT22;64122;51.988;5.892;2023-05-27T11:45:47;23.96;30.84
75363;DHT22;64122;51.988;5.892;2023-05-27T11:48:16;23.91;31.16
75363;DHT22;64122;51.988;5.892;2023-05-27T11:50:48;23.98;30.64
75363;DHT22;64122;51.988;5.892;2023-05-27T11:53:18;23.96;30.89
75363;DHT22;64122;51.988;5.892;2023-05-27T11:55:47;23.85;31.02
75363;DHT22;64122;51.988;5.892;2023-05-27T11:58:16;23.83;30.82
75363;DHT22;64122;51.988;5.892;2023-05-27T12:00:46;23.85;30.71
75363;DHT22;64122;51.988;5.892;2023-05-27T12:03:15;23.82;30.91
75363;DHT22;64122;51.988;5.892;2023-05-27T12:05:44;23.92;30.96
75363;DHT22;64122;51.988;5.892;2023-05-27T12:08:16;24.03;30.47
75363;DHT22;64122;51.988;5.892;2023-05-27T12:10:45;23.99;30.09
75363;DHT22;64122;51.988;5.892;2023-05-27T12:13:16;23.90;30.19
75363;DHT22;64122;51.988;5.892;2023-05-27T12:15:45;23.95;30.45
75363;DHT22;64122;51.988;5.892;2023-05-27T12:18:15;23.80;30.55
75363;DHT22;64122;51.988;5.892;2023-05-27T12:20:44;23.92;30.45
75363;DHT22;64122;51.988;5.892;2023-05-27T12:23:16;24.03;29.78
75363;DHT22;64122;51.988;5.892;2023-05-27T12:25:46;23.90;29.75
75363;DHT22;64122;51.988;5.892;2023-05-27T12:28:15;23.91;29.87
75363;DHT22;64122;51.988;5.892;2023-05-27T12:30:46;23.95;30.11
75363;DHT22;64122;51.988;5.892;2023-05-27T12:33:15;24.00;29.37
75363;DHT22;64122;51.988;5.892;2023-05-27T12:35:44;23.95;29.02
75363;DHT22;64122;51.988;5.892;2023-05-27T12:38:16;23.98;29.48
75363;DHT22;64122;51.988;5.892;2023-05-27T12:40:46;24.08;29.81
75363;DHT22;64122;51.988;5.892;2023-05-27T12:43:16;24.20;29.68
75363;DHT22;64122;51.988;5.892;2023-05-27T12:45:46;24.08;29.82
75363;DHT22;64122;51.988;5.892;2023-05-27T12:48:15;24.09;29.32
75363;DHT22;64122;51.988;5.892;2023-05-27T12:50:47;24.13;29.47
75363;DHT22;64122;51.988;5.892;2023-05-27T12:53:19;24.20;30.13
75363;DHT22;64122;51.988;5.892;2023-05-27T12:55:48;24.35;29.90
75363;DHT22;64122;51.988;5.892;2023-05-27T12:58:17;24.26;29.51
75363;DHT22;64122;51.988;5.892;2023-05-27T13:00:47;24.11;30.40
75363;DHT22;64122;51.988;5.892;2023-05-27T13:03:16;24.15;30.62
75363;DHT22;64122;51.988;5.892;2023-05-27T13:05:48;24.25;30.59
75363;DHT22;64122;51.988;5.892;2023-05-27T13:08:20;24.19;30.65
75363;DHT22;64122;51.988;5.892;2023-05-27T13:10:49;24.14;30.90
75363;DHT22;64122;51.988;5.892;2023-05-27T13:13:19;24.19;31.32
75363;DHT22;64122;51.988;5.892;2023-05-27T13:15:48;24.34;31.43
75363;DHT22;64122;51.988;5.892;2023-05-27T13:18:17;24.33;31.60
75363;DHT22;64122;51.988;5.892;2023-05-27T13:20:47;24.30;31.18
75363;DHT22;64122;51.988;5.892;2023-05-27T13:23:19;24.24;31.18
75363;DHT22;64122;51.988;5.892;2023-05-27T13:25:48;24.19;31.33
75363;DHT22;64122;51.988;5.892;2023-05-27T13:28:19;24.33;31.00
75363;DHT22;64122;51.988;5.892;2023-05-27T13:30:48;24.30;31.25
75363;DHT22;64122;51.988;5.892;2023-05-27T13:33:18;24.35;30.95
75363;DHT22;64122;51.988;5.892;2023-05-27T13:35:47;24.40;30.64
75363;DHT22;64122;51.988;5.892;2023-05-27T13:38:19;24.17;30.64
75363;DHT22;64122;51.988;5.892;2023-05-27T13:40:48;24.11;30.35
75363;DHT22;64122;51.988;5.892;2023-05-27T13:43:18;24.14;30.61
75363;DHT22;64122;51.988;5.892;2023-05-27T13:45:47;24.21;30.71
75363;DHT22;64122;51.988;5.892;2023-05-27T13:48:16;24.28;30.64
75363;DHT22;64122;51.988;5.892;2023-05-27T13:50:46;24.35;30.40
75363;DHT22;64122;51.988;5.892;2023-05-27T13:53:15;24.41;29.99
75363;DHT22;64122;51.988;5.892;2023-05-27T13:55:47;24.34;29.87
75363;DHT22;64122;51.988;5.892;2023-05-27T13:58:17;24.38;30.06
75363;DHT22;64122;51.988;5.892;2023-05-27T14:00:46;24.49;29.77
75363;DHT22;64122;51.988;5.892;2023-05-27T14:03:16;24.54;30.26
75363;DHT22;64122;51.988;5.892;2023-05-27T14:05:45;24.55;30.28
75363;DHT22;64122;51.988;5.892;2023-05-27T14:08:16;24.56;30.06
75363;DHT22;64122;51.988;5.892;2023-05-27T14:10:48;24.39;30.27
75363;DHT22;64122;51.988;5.892;2023-05-27T14:13:17;24.38;30.57
75363;DHT22;64122;51.988;5.892;2023-05-27T14:15:46;24.51;30.61
75363;DHT22;64122;51.988;5.892;2023-05-27T14:18:15;24.58;30.20
75363;DHT22;64122;51.988;5.892;2023-05-27T14:20:45;24.56;29.87
75363;DHT22;64122;51.988;5.892;2023-05-27T14:23:14;24.65;29.59
75363;DHT22;64122;51.988;5.892;2023-05-27T14:25:43;24.74;29.57
75363;DHT22;64122;51.988;5.892;2023-05-27T14:28:15;24.76;29.97
75363;DHT22;64122;51.988;5.892;2023-05-27T14:30:45;24.62;30.29
75363;DHT22;64122;51.988;5.892;2023-05-27T14:33:14;24.60;30.36
75363;DHT22;64122;51.988;5.892;2023-05-27T14:35:43;24.57;30.26
75363;DHT22;64122;51.988;5.892;2023-05-27T14:38:15;24.54;30.28
75363;DHT22;64122;51.988;5.892;2023-05-27T14:40:44;24.39;30.58
75363;DHT22;64122;51.988;5.892;2023-05-27T14:43:18;24.47;30.50
75363;DHT22;64122;51.988;5.892;2023-05-27T14:45:51;24.50;30.34
75363;DHT22;64122;51.988;5.892;2023-05-27T14:48:20;24.42;30.38
75363;DHT22;64122;51.988;5.892;2023-05-27T14:50:49;24.40;30.04
75363;DHT22;64122;51.988;5.892;2023-05-27T14:53:19;24.29;30.15
75363;DHT22;64122;51.988;5.892;2023-05-27T14:55:48;24.25;30.05
75363;DHT22;64122;51.988;5.892;2023-05-27T14:58:20;24.32;30.12
75363;DHT22;64122;51.988;5.892;2023-05-27T15:00:50;24.36;30.13
75363;DHT22;64122;51.988;5.892;2023-05-27T15:03:19;24.28;30.16
75363;DHT22;64122;51.988;5.892;2023-05-27T15:05:48;24.33;29.80
75363;DHT22;64122;51.988;5.892;2023-05-27T15:08:18;24.38;29.15
75363;DHT22;64122;51.988;5.892;2023-05-27T15:10:47;24.36;28.97
75363;DHT22;64122;51.988;5.892;2023-05-27T15:13:16;24.36;28.98
75363;DHT22;64122;51.988;5.892;2023-05-27T15:15:49;24.43;29.03
75363;DHT22;64122;51.988;5.892;2023-05-27T15:18:18;24.46;29.46
75363;DHT22;64122;51.988;5.892;2023-05-27T15:20:48;24.43;29.57
75363;DHT22;64122;51.988;5.892;2023-05-27T15:23:17;24.45;29.39
75363;DHT22;64122;51.988;5.892;2023-05-27T15:25:46;24.49;29.63
75363;DHT22;64122;51.988;5.892;2023-05-27T15:28:16;24.50;29.85
75363;DHT22;64122;51.988;5.892;2023-05-27T15:30:46;24.56;29.54
75363;DHT22;64122;51.988;5.892;2023-05-27T15:33:18;24.60;29.43
75363;DHT22;64122;51.988;5.892;2023-05-27T15:35:47;24.43;29.87
75363;DHT22;64122;51.988;5.892;2023-05-27T15:38:16;24.39;29.78
75363;DHT22;64122;51.988;5.892;2023-05-27T15:40:45;24.38;29.92
75363;DHT22;64122;51.988;5.892;2023-05-27T15:43:15;24.36;29.49
75363;DHT22;64122;51.988;5.892;2023-05-27T15:45:44;24.28;29.43
75363;DHT22;64122;51.988;5.892;2023-05-27T15:48:13;24.27;29.46
75363;DHT22;64122;51.988;5.892;2023-05-27T15:50:45;24.28;29.42
75363;DHT22;64122;51.988;5.892;2023-05-27T15:53:17;24.24;29.96
75363;DHT22;64122;51.988;5.892;2023-05-27T15:55:47;24.24;30.06
75363;DHT22;64122;51.988;5.892;2023-05-27T15:58:19;24.25;30.23
75363;DHT22;64122;51.988;5.892;2023-05-27T16:00:48;24.35;30.22